createdAt,value
2018-04-07T00:00:45.561Z,10.77
2018-04-07T00:03:13.084Z,11.53
2018-04-07T00:05:40.935Z,11.30
2018-04-07T00:08:08.429Z,11.40
2018-04-07T00:10:35.956Z,11.03
2018-04-07T00:13:03.818Z,10.80
2018-04-07T00:15:31.323Z,11.30
2018-04-07T00:17:58.864Z,10.87
2018-04-07T00:20:26.371Z,12.33
2018-04-07T00:22:53.877Z,16.27
2018-04-07T00:25:21.416Z,11.37
2018-04-07T00:27:48.927Z,11.03
2018-04-07T00:30:16.477Z,12.20
2018-04-07T00:32:44.038Z,10.87
2018-04-07T00:35:11.563Z,10.47
2018-04-07T00:37:39.108Z,10.53
2018-04-07T00:40:06.621Z,10.60
2018-04-07T00:42:34.190Z,10.43
2018-04-07T00:45:01.715Z,11.27
2018-04-07T00:47:29.299Z,10.63
2018-04-07T00:49:56.832Z,10.50
2018-04-07T00:52:24.388Z,10.30
2018-04-07T00:54:52.017Z,10.53
2018-04-07T00:57:19.580Z,10.37
2018-04-07T00:59:47.109Z,10.13
2018-04-07T01:02:14.650Z,10.90
2018-04-07T01:04:42.520Z,10.67
2018-04-07T01:07:10.076Z,10.50
2018-04-07T01:09:37.571Z,10.80
2018-04-07T01:12:05.111Z,10.67
2018-04-07T01:14:33.143Z,10.13
2018-04-07T01:17:00.652Z,10.20
2018-04-07T01:19:28.224Z,10.43
2018-04-07T01:21:55.744Z,10.80
2018-04-07T01:24:23.294Z,10.07
2018-04-07T01:26:50.837Z,10.03
2018-04-07T01:29:18.347Z,9.90
2018-04-07T01:31:45.929Z,10.30
2018-04-07T01:34:13.495Z,9.83
2018-04-07T01:36:41.010Z,9.97
2018-04-07T01:39:08.772Z,10.63
2018-04-07T01:41:36.328Z,11.07
2018-04-07T01:44:03.926Z,11.60
2018-04-07T01:46:31.491Z,10.77
2018-04-07T01:48:59.323Z,11.07
2018-04-07T01:51:26.883Z,10.67
2018-04-07T01:53:54.478Z,10.97
2018-04-07T01:56:22.305Z,10.70
2018-04-07T01:58:49.792Z,10.60
2018-04-07T02:01:17.320Z,11.43
2018-04-07T02:03:44.988Z,10.53
2018-04-07T02:06:12.508Z,10.47
2018-04-07T02:08:40.095Z,10.70
2018-04-07T02:11:07.629Z,11.07
2018-04-07T02:13:35.153Z,11.30
2018-04-07T02:16:02.711Z,11.03
2018-04-07T02:18:30.245Z,11.37
2018-04-07T02:20:57.912Z,10.77
2018-04-07T02:23:25.427Z,10.60
2018-04-07T02:25:52.948Z,11.17
2018-04-07T02:28:21.094Z,11.37
2018-04-07T02:30:48.636Z,10.80
2018-04-07T02:33:16.434Z,11.37
2018-04-07T02:35:43.952Z,11.10
2018-04-07T02:38:11.504Z,10.57
2018-04-07T02:40:39.041Z,11.70
2018-04-07T02:43:07.291Z,10.83
2018-04-07T02:45:35.149Z,11.27
2018-04-07T02:48:02.664Z,11.23
2018-04-07T02:50:30.200Z,11.20
2018-04-07T02:52:57.754Z,11.10
2018-04-07T02:55:25.314Z,11.53
2018-04-07T02:57:52.943Z,10.80
2018-04-07T03:00:20.444Z,10.47
2018-04-07T03:02:48.711Z,10.90
2018-04-07T03:05:16.299Z,11.30
2018-04-07T03:07:43.826Z,11.70
2018-04-07T03:10:11.387Z,11.30
2018-04-07T03:12:38.937Z,11.03
2018-04-07T03:15:06.440Z,10.73
2018-04-07T03:17:34.041Z,11.33
2018-04-07T03:20:01.555Z,11.20
2018-04-07T03:22:29.117Z,10.90
2018-04-07T03:24:56.627Z,10.83
2018-04-07T03:27:24.194Z,11.47
2018-04-07T03:29:51.725Z,12.10
2018-04-07T03:32:19.285Z,11.40
2018-04-07T03:34:46.824Z,11.80
2018-04-07T03:37:14.345Z,11.50
2018-04-07T03:39:42.302Z,10.80
2018-04-07T03:42:09.815Z,11.40
2018-04-07T03:44:37.349Z,11.90
2018-04-07T03:47:05.298Z,13.00
2018-04-07T03:49:32.821Z,12.20
2018-04-07T03:52:00.383Z,12.50
2018-04-07T03:54:28.286Z,14.73
2018-04-07T03:56:55.830Z,16.60
2018-04-07T03:59:23.397Z,14.07
2018-04-07T04:01:50.923Z,11.90
2018-04-07T04:04:18.478Z,11.50
2018-04-07T04:06:46.003Z,11.53
2018-04-07T04:09:13.572Z,11.70
2018-04-07T04:11:41.129Z,11.20
2018-04-07T04:14:08.652Z,12.30
2018-04-07T04:16:36.218Z,11.60
2018-04-07T04:19:03.739Z,12.40
2018-04-07T04:21:31.295Z,11.97
2018-04-07T04:23:59.118Z,11.90
2018-04-07T04:26:26.620Z,11.80
2018-04-07T04:28:54.230Z,12.07
2018-04-07T04:31:21.753Z,12.53
2018-04-07T04:33:49.347Z,11.90
2018-04-07T04:36:16.870Z,13.10
2018-04-07T04:38:44.377Z,12.70
2018-04-07T04:41:11.942Z,12.37
2018-04-07T04:43:39.540Z,12.10
2018-04-07T04:46:07.370Z,12.03
2018-04-07T04:48:35.588Z,12.00
2018-04-07T04:51:03.100Z,11.70
2018-04-07T04:53:30.619Z,11.90
2018-04-07T04:55:58.132Z,11.40
2018-04-07T04:58:25.997Z,12.03
2018-04-07T05:00:53.523Z,11.40
2018-04-07T05:03:21.048Z,12.33
2018-04-07T05:05:48.634Z,13.00
2018-04-07T05:08:16.205Z,13.43
2018-04-07T05:10:43.763Z,12.50
2018-04-07T05:13:11.286Z,12.37
2018-04-07T05:15:38.880Z,11.70
2018-04-07T05:18:06.429Z,12.23
2018-04-07T05:20:33.962Z,12.93
2018-04-07T05:23:01.486Z,11.77
2018-04-07T05:25:29.012Z,12.00
2018-04-07T05:27:56.542Z,13.07
2018-04-07T05:30:24.113Z,13.03
2018-04-07T05:32:51.681Z,12.03
2018-04-07T05:35:19.222Z,13.57
2018-04-07T05:37:46.815Z,14.10
2018-04-07T05:40:14.353Z,12.87
2018-04-07T05:42:41.928Z,12.77
2018-04-07T05:45:09.470Z,13.33
2018-04-07T05:47:37.544Z,12.30
2018-04-07T05:50:05.825Z,13.07
2018-04-07T05:52:33.740Z,13.43
2018-04-07T05:55:01.347Z,13.03
2018-04-07T05:57:28.863Z,12.87
2018-04-07T05:59:56.378Z,12.93
2018-04-07T06:02:23.976Z,12.87
2018-04-07T06:04:51.516Z,13.30
2018-04-07T06:07:19.771Z,13.37
2018-04-07T06:09:47.313Z,12.73
2018-04-07T06:12:14.843Z,13.63
2018-04-07T06:14:42.429Z,13.73
2018-04-07T06:17:09.943Z,13.23
2018-04-07T06:19:37.773Z,13.40
2018-04-07T06:22:05.350Z,13.97
2018-04-07T06:24:32.894Z,13.47
2018-04-07T06:27:02.394Z,13.90
2018-04-07T06:29:29.951Z,14.23
2018-04-07T06:31:57.504Z,13.47
2018-04-07T06:34:25.576Z,14.23
2018-04-07T06:36:54.396Z,13.33
2018-04-07T06:39:22.532Z,12.90
2018-04-07T06:41:50.400Z,17.70
2018-04-07T06:44:18.177Z,14.60
2018-04-07T06:46:46.072Z,12.77
2018-04-07T06:49:13.626Z,13.50
2018-04-07T06:51:41.206Z,13.60
2018-04-07T06:54:09.165Z,14.37
2018-04-07T06:56:39.171Z,13.10
2018-04-07T06:59:08.310Z,14.07
2018-04-07T07:01:35.870Z,14.20
2018-04-07T07:04:03.411Z,13.80
2018-04-07T07:06:30.972Z,12.80
2018-04-07T07:08:58.625Z,12.90
2018-04-07T07:11:26.472Z,14.20
2018-04-07T07:13:55.096Z,13.40
2018-04-07T07:16:22.713Z,13.60
2018-04-07T07:18:50.220Z,13.47
2018-04-07T07:21:17.905Z,13.67
2018-04-07T07:23:45.469Z,23.50
2018-04-07T07:26:13.025Z,16.33
2018-04-07T07:28:40.568Z,13.40
2018-04-07T07:31:08.147Z,13.70
2018-04-07T07:33:35.723Z,13.70
2018-04-07T07:36:03.600Z,13.97
2018-04-07T07:38:31.140Z,12.87
2018-04-07T07:40:58.900Z,13.03
2018-04-07T07:43:26.434Z,13.77
2018-04-07T07:45:53.950Z,13.70
2018-04-07T07:48:21.484Z,12.83
2018-04-07T07:50:49.402Z,14.07
2018-04-07T07:53:17.804Z,14.43
2018-04-07T07:55:45.386Z,12.80
2018-04-07T07:58:13.047Z,13.80
2018-04-07T08:00:40.603Z,14.30
2018-04-07T08:03:08.257Z,13.20
2018-04-07T08:05:35.881Z,13.20
2018-04-07T08:08:03.517Z,13.70
2018-04-07T08:10:31.080Z,18.73
2018-04-07T08:12:58.919Z,13.10
2018-04-07T08:15:26.426Z,13.20
2018-04-07T08:17:54.121Z,14.10
2018-04-07T08:20:21.646Z,13.60
2018-04-07T08:22:49.517Z,13.23
2018-04-07T08:25:17.101Z,13.30
2018-04-07T08:27:44.684Z,13.80
2018-04-07T08:30:12.228Z,15.57
2018-04-07T08:32:41.045Z,13.00
2018-04-07T08:35:09.159Z,13.10
2018-04-07T08:37:36.813Z,13.50
2018-04-07T08:40:04.470Z,12.80
2018-04-07T08:42:32.102Z,14.73
2018-04-07T08:44:59.656Z,13.00
2018-04-07T08:47:27.252Z,12.67
2018-04-07T08:49:54.818Z,13.30
2018-04-07T08:52:22.407Z,13.30
2018-04-07T08:54:50.352Z,12.93
2018-04-07T08:57:18.001Z,14.13
2018-04-07T08:59:45.724Z,14.20
2018-04-07T09:02:13.558Z,14.10
2018-04-07T09:04:41.161Z,13.47
2018-04-07T09:07:08.829Z,13.73
2018-04-07T09:09:36.415Z,13.63
2018-04-07T09:12:04.298Z,13.67
2018-04-07T09:14:32.150Z,13.10
2018-04-07T09:16:59.703Z,14.20
2018-04-07T09:19:27.295Z,14.77
2018-04-07T09:21:54.827Z,12.67
2018-04-07T09:24:22.361Z,14.77
2018-04-07T09:26:49.890Z,13.63
2018-04-07T09:29:17.457Z,14.17
2018-04-07T09:31:44.970Z,13.40
2018-04-07T09:34:12.533Z,16.10
2018-04-07T09:36:40.102Z,17.23
2018-04-07T09:39:07.811Z,13.90
2018-04-07T09:41:35.589Z,15.30
2018-04-07T09:44:03.137Z,17.60
2018-04-07T09:46:30.683Z,15.00
2018-04-07T09:48:58.322Z,15.47
2018-04-07T09:51:25.954Z,13.67
2018-04-07T09:53:53.869Z,13.10
2018-04-07T09:56:21.486Z,13.67
2018-04-07T09:58:49.065Z,14.47
2018-04-07T10:01:16.697Z,14.40
2018-04-07T10:03:44.250Z,15.20
2018-04-07T10:06:11.811Z,14.80
2018-04-07T10:08:39.432Z,13.60
2018-04-07T10:11:06.963Z,14.20
2018-04-07T10:13:34.590Z,16.90
2018-04-07T10:16:02.163Z,13.83
2018-04-07T10:18:29.693Z,14.37
2018-04-07T10:20:57.249Z,13.93
2018-04-07T10:23:24.813Z,13.30
2018-04-07T10:25:52.487Z,12.67
2018-04-07T10:28:20.444Z,13.53
2018-04-07T10:30:48.003Z,15.60
2018-04-07T10:33:15.521Z,13.23
2018-04-07T10:35:43.051Z,14.13
2018-04-07T10:38:10.692Z,13.17
2018-04-07T10:40:38.288Z,12.00
2018-04-07T10:43:05.844Z,12.47
2018-04-07T10:45:33.580Z,13.30
2018-04-07T10:48:01.112Z,12.20
2018-04-07T10:50:28.717Z,13.17
2018-04-07T10:52:56.249Z,13.40
2018-04-07T10:55:23.807Z,12.77
2018-04-07T10:57:51.384Z,12.30
2018-04-07T11:00:19.336Z,12.47
2018-04-07T11:02:46.876Z,12.60
2018-04-07T11:05:14.455Z,12.40
2018-04-07T11:07:41.995Z,13.00
2018-04-07T11:10:09.681Z,12.40
2018-04-07T11:12:37.245Z,13.30
2018-04-07T11:15:05.123Z,12.80
2018-04-07T11:17:32.679Z,11.67
2018-04-07T11:20:00.251Z,11.97
2018-04-07T11:22:27.789Z,12.93
2018-04-07T11:24:55.377Z,12.07
2018-04-07T11:27:24.282Z,12.43
2018-04-07T11:29:52.118Z,12.40
2018-04-07T11:32:19.622Z,13.53
2018-04-07T11:34:47.734Z,12.40
2018-04-07T11:37:16.193Z,12.03
2018-04-07T11:39:43.746Z,12.47
2018-04-07T11:42:11.284Z,12.73
2018-04-07T11:44:38.813Z,12.63
2018-04-07T11:47:06.334Z,12.83
2018-04-07T11:49:33.863Z,12.73
2018-04-07T11:52:01.393Z,12.77
2018-04-07T11:54:29.567Z,12.57
2018-04-07T11:56:57.117Z,12.30
2018-04-07T11:59:24.632Z,12.47
2018-04-07T12:04:26.342Z,11.90
2018-04-07T12:06:53.952Z,12.07
2018-04-07T12:09:21.522Z,11.57
2018-04-07T12:11:49.222Z,11.90
2018-04-07T12:14:16.785Z,11.80
2018-04-07T12:16:44.418Z,11.10
2018-04-07T12:19:11.936Z,11.27
2018-04-07T12:21:39.615Z,11.00
2018-04-07T12:24:07.240Z,12.30
2018-04-07T12:26:34.911Z,11.37
2018-04-07T12:29:02.468Z,12.20
2018-04-07T12:31:30.123Z,11.90
2018-04-07T12:33:57.751Z,11.40
2018-04-07T12:36:25.434Z,11.33
2018-04-07T12:38:53.984Z,11.37
2018-04-07T12:41:21.552Z,10.87
2018-04-07T12:43:49.135Z,12.00
2018-04-07T12:46:16.834Z,13.27
2018-04-07T12:48:44.436Z,11.33
2018-04-07T12:51:12.077Z,13.77
2018-04-07T12:53:39.612Z,12.67
2018-04-07T12:56:07.215Z,11.77
2018-04-07T12:58:34.900Z,12.68
2018-04-07T13:01:02.515Z,15.98
2018-04-07T13:03:30.068Z,12.75
2018-04-07T13:05:57.756Z,12.10
2018-04-07T13:08:25.394Z,11.90
2018-04-07T13:10:53.479Z,15.97
2018-04-07T13:13:21.002Z,13.40
2018-04-07T13:15:48.583Z,11.93
2018-04-07T13:18:16.806Z,12.17
2018-04-07T13:20:44.395Z,12.20
2018-04-07T13:23:11.956Z,11.83
2018-04-07T13:25:39.487Z,12.77
2018-04-07T13:28:07.095Z,11.63
2018-04-07T13:30:34.965Z,11.60
2018-04-07T13:33:02.497Z,11.83
2018-04-07T13:35:30.261Z,11.63
2018-04-07T13:37:57.830Z,12.27
2018-04-07T13:40:25.369Z,13.07
2018-04-07T13:42:53.164Z,12.73
2018-04-07T13:45:20.746Z,13.30
2018-04-07T13:47:48.282Z,12.70
2018-04-07T13:50:15.875Z,11.67
2018-04-07T13:52:43.533Z,11.03
2018-04-07T13:55:11.058Z,11.77
2018-04-07T13:57:38.596Z,11.83
2018-04-07T14:00:06.180Z,11.20
2018-04-07T14:02:33.829Z,11.03
2018-04-07T14:05:01.404Z,10.50
2018-04-07T14:07:29.011Z,11.40
2018-04-07T14:09:56.594Z,11.70
2018-04-07T14:12:24.423Z,10.70
2018-04-07T14:14:52.082Z,11.70
2018-04-07T14:17:19.723Z,10.90
2018-04-07T14:19:47.673Z,11.27
2018-04-07T14:22:15.262Z,10.73
2018-04-07T14:24:42.838Z,10.90
2018-04-07T14:27:10.371Z,11.20
2018-04-07T14:29:38.005Z,11.33
2018-04-07T14:32:05.669Z,11.13
2018-04-07T14:34:33.402Z,11.40
2018-04-07T14:37:01.012Z,10.27
2018-04-07T14:39:28.543Z,12.13
2018-04-07T14:41:56.308Z,11.00
2018-04-07T14:44:23.937Z,10.63
2018-04-07T14:46:51.492Z,10.90
2018-04-07T14:49:19.105Z,11.70
2018-04-07T14:51:46.778Z,10.40
2018-04-07T14:54:14.441Z,11.23
2018-04-07T14:56:42.694Z,11.23
2018-04-07T14:59:10.548Z,11.33
2018-04-07T15:01:38.065Z,10.80
2018-04-07T15:04:05.801Z,10.57
2018-04-07T15:06:33.436Z,11.00
2018-04-07T15:09:00.968Z,11.20
2018-04-07T15:11:28.523Z,11.20
2018-04-07T15:13:56.072Z,11.40
2018-04-07T15:16:23.676Z,11.10
2018-04-07T15:18:51.197Z,11.30
2018-04-07T15:21:18.732Z,11.33
2018-04-07T15:23:46.249Z,11.60
2018-04-07T15:26:13.786Z,11.80
2018-04-07T15:28:41.372Z,12.13
2018-04-07T15:31:08.991Z,11.23
2018-04-07T15:33:36.520Z,11.50
2018-04-07T15:36:04.057Z,11.50
2018-04-07T15:38:31.619Z,12.03
2018-04-07T15:40:59.142Z,11.30
2018-04-07T15:43:26.706Z,11.90
2018-04-07T15:45:54.220Z,11.40
2018-04-07T15:48:21.823Z,11.60
2018-04-07T15:50:49.614Z,10.73
2018-04-07T15:53:17.208Z,12.17
2018-04-07T15:55:44.734Z,11.40
2018-04-07T15:58:12.295Z,11.10
2018-04-07T16:00:39.866Z,12.37
2018-04-07T16:03:07.724Z,11.80
2018-04-07T16:05:35.332Z,11.97
2018-04-07T16:08:02.911Z,12.10
2018-04-07T16:10:30.484Z,11.80
2018-04-07T16:12:58.033Z,11.20
2018-04-07T16:15:25.638Z,10.57
2018-04-07T16:17:53.464Z,12.23
2018-04-07T16:20:21.160Z,12.37
2018-04-07T16:22:49.046Z,12.17
2018-04-07T16:25:16.673Z,12.00
2018-04-07T16:27:44.635Z,11.60
2018-04-07T16:30:12.336Z,12.10
2018-04-07T16:32:40.302Z,12.10
2018-04-07T16:35:07.866Z,12.67
2018-04-07T16:37:35.408Z,11.03
2018-04-07T16:40:03.076Z,11.43
2018-04-07T16:42:30.700Z,11.50
2018-04-07T16:44:58.295Z,11.30
2018-04-07T16:50:11.231Z,11.70
2018-04-07T16:52:38.838Z,10.63
2018-04-07T16:55:06.446Z,11.20
2018-04-07T16:57:34.047Z,11.60
2018-04-07T17:00:01.683Z,11.50
2018-04-07T17:02:29.264Z,11.97
2018-04-07T17:04:56.824Z,11.70
2018-04-07T17:07:24.391Z,11.63
2018-04-07T17:09:51.976Z,12.00
2018-04-07T17:12:19.707Z,11.27
2018-04-07T17:14:47.330Z,11.77
2018-04-07T17:17:14.889Z,11.97
2018-04-07T17:19:42.493Z,11.87
2018-04-07T17:22:10.058Z,12.23
2018-04-07T17:24:37.599Z,12.03
2018-04-07T17:27:05.134Z,12.63
2018-04-07T17:29:32.700Z,11.47
2018-04-07T17:32:00.261Z,12.67
2018-04-07T17:34:28.395Z,11.83
2018-04-07T17:36:55.956Z,12.00
2018-04-07T17:39:23.782Z,12.60
2018-04-07T17:41:51.417Z,12.30
2018-04-07T17:44:18.909Z,12.40
2018-04-07T17:46:46.566Z,12.30
2018-04-07T17:49:14.092Z,17.00
2018-04-07T17:51:41.682Z,12.37
2018-04-07T17:54:09.229Z,12.57
2018-04-07T17:56:36.795Z,12.17
2018-04-07T17:59:04.897Z,11.97
2018-04-07T18:01:32.447Z,12.47
2018-04-07T18:04:00.110Z,12.23
2018-04-07T18:06:27.974Z,12.40
2018-04-07T18:08:55.495Z,12.80
2018-04-07T18:11:23.124Z,15.20
2018-04-07T18:13:50.718Z,12.90
2018-04-07T18:16:18.268Z,12.93
2018-04-07T18:18:45.818Z,16.30
2018-04-07T18:21:13.366Z,13.60
2018-04-07T18:23:40.916Z,12.90
2018-04-07T18:26:08.527Z,12.20
2018-04-07T18:28:36.082Z,12.70
2018-04-07T18:31:03.591Z,13.20
2018-04-07T18:33:31.128Z,17.47
2018-04-07T18:35:59.026Z,13.97
2018-04-07T18:38:26.551Z,14.20
2018-04-07T18:40:54.059Z,13.40
2018-04-07T18:43:21.640Z,14.10
2018-04-07T18:45:49.194Z,14.17
2018-04-07T18:48:16.779Z,15.13
2018-04-07T18:50:44.399Z,14.77
2018-04-07T18:53:11.977Z,15.03
2018-04-07T18:55:39.819Z,15.37
2018-04-07T18:58:07.384Z,14.97
2018-04-07T19:00:34.887Z,15.27
2018-04-07T19:03:02.438Z,14.37
2018-04-07T19:05:30.135Z,15.90
2018-04-07T19:07:57.744Z,15.47
2018-04-07T19:10:25.274Z,16.37
2018-04-07T19:12:52.901Z,15.77
2018-04-07T19:15:20.466Z,15.67
2018-04-07T19:17:48.014Z,15.93
2018-04-07T19:20:15.590Z,15.20
2018-04-07T19:22:43.160Z,16.20
2018-04-07T19:25:10.760Z,16.13
2018-04-07T19:27:38.441Z,16.37
2018-04-07T19:30:06.050Z,16.23
2018-04-07T19:32:33.650Z,16.77
2018-04-07T19:35:01.240Z,16.50
2018-04-07T19:37:29.083Z,16.37
2018-04-07T19:39:56.804Z,17.70
2018-04-07T19:42:24.370Z,16.73
2018-04-07T19:44:52.059Z,17.47
2018-04-07T19:47:19.625Z,17.77
2018-04-07T19:49:47.235Z,17.57
2018-04-07T19:52:14.915Z,16.87
2018-04-07T19:54:42.520Z,18.93
2018-04-07T19:57:10.186Z,18.80
2018-04-07T19:59:37.995Z,19.50
2018-04-07T20:02:05.636Z,17.30
2018-04-07T20:04:33.208Z,19.63
2018-04-07T20:07:00.750Z,17.97
2018-04-07T20:09:28.490Z,20.03
2018-04-07T20:11:56.072Z,19.83
2018-04-07T20:14:23.632Z,18.50
2018-04-07T20:16:51.235Z,19.40
2018-04-07T20:19:19.063Z,19.27
2018-04-07T20:21:46.662Z,19.70
2018-04-07T20:24:14.264Z,28.40
2018-04-07T20:26:41.915Z,21.97
2018-04-07T20:29:09.465Z,21.80
2018-04-07T20:31:37.029Z,22.67
2018-04-07T20:34:04.906Z,20.20
2018-04-07T20:36:32.498Z,21.90
2018-04-07T20:39:00.075Z,19.67
2018-04-07T20:41:27.652Z,20.40
2018-04-07T20:43:55.878Z,19.03
2018-04-07T20:46:23.378Z,19.57
2018-04-07T20:48:50.943Z,20.67
2018-04-07T20:51:18.498Z,20.30
2018-04-07T20:53:46.038Z,20.30
2018-04-07T20:56:13.683Z,20.50
2018-04-07T20:58:41.208Z,20.87
2018-04-07T21:01:08.745Z,19.47
2018-04-07T21:03:36.369Z,20.00
2018-04-07T21:06:03.955Z,18.73
2018-04-07T21:08:32.315Z,19.73
2018-04-07T21:11:00.972Z,20.10
2018-04-07T21:13:28.549Z,18.90
2018-04-07T21:15:56.105Z,21.17
2018-04-07T21:18:23.679Z,18.80
2018-04-07T21:20:51.267Z,19.63
2018-04-07T21:23:18.811Z,21.00
2018-04-07T21:25:46.693Z,20.87
2018-04-07T21:28:14.285Z,20.50
2018-04-07T21:30:41.797Z,19.77
2018-04-07T21:33:09.345Z,19.57
2018-04-07T21:35:36.876Z,20.83
2018-04-07T21:38:04.416Z,19.53
2018-04-07T21:40:31.997Z,18.60
2018-04-07T21:42:59.578Z,19.93
2018-04-07T21:45:27.143Z,21.27
2018-04-07T21:47:54.807Z,20.57
2018-04-07T21:50:22.817Z,17.77
2018-04-07T21:52:50.525Z,19.60
2018-04-07T21:55:18.273Z,18.20
2018-04-07T21:57:45.788Z,19.40
2018-04-07T22:00:13.308Z,18.63
2018-04-07T22:02:42.731Z,18.13
2018-04-07T22:05:10.265Z,17.77
2018-04-07T22:07:37.767Z,18.13
2018-04-07T22:10:06.054Z,18.23
2018-04-07T22:12:35.781Z,18.13
2018-04-07T22:15:03.503Z,18.43
2018-04-07T22:17:31.073Z,18.93
2018-04-07T22:19:58.596Z,17.87
2018-04-07T22:22:26.204Z,27.50
2018-04-07T22:24:54.234Z,21.37
2018-04-07T22:27:21.804Z,19.07
2018-04-07T22:29:51.181Z,18.37
2018-04-07T22:32:18.987Z,17.63
2018-04-07T22:34:46.522Z,19.07
2018-04-07T22:37:14.296Z,17.37
2018-04-07T22:39:42.165Z,16.27
2018-04-07T22:42:09.686Z,17.40
2018-04-07T22:44:37.256Z,17.93
2018-04-07T22:47:04.942Z,17.07
2018-04-07T22:49:32.476Z,16.90
2018-04-07T22:51:59.995Z,17.13
2018-04-07T22:54:27.602Z,16.33
2018-04-07T22:56:55.175Z,16.40
2018-04-07T22:59:22.701Z,15.93
2018-04-07T23:01:50.261Z,16.07
2018-04-07T23:04:17.786Z,15.33
2018-04-07T23:06:45.317Z,15.17
2018-04-07T23:09:12.856Z,14.93
2018-04-07T23:11:40.383Z,15.17
2018-04-07T23:14:07.988Z,15.23
2018-04-07T23:16:35.648Z,15.30
2018-04-07T23:19:03.261Z,14.30
2018-04-07T23:21:30.829Z,14.83
2018-04-07T23:23:58.428Z,14.10
2018-04-07T23:26:26.077Z,14.27
2018-04-07T23:28:53.595Z,14.97
2018-04-07T23:31:21.255Z,14.40
2018-04-07T23:33:49.121Z,14.10
2018-04-07T23:36:17.093Z,14.43
2018-04-07T23:38:44.972Z,15.07
2018-04-07T23:41:12.521Z,14.00
2018-04-07T23:43:40.048Z,14.40
2018-04-07T23:46:07.674Z,14.00
2018-04-07T23:48:35.236Z,14.03
2018-04-07T23:51:02.795Z,13.80
2018-04-07T23:53:30.356Z,14.57
2018-04-07T23:55:57.880Z,14.30
2018-04-07T23:58:25.405Z,14.27
